Time;durP1;ratioP1;P1;durP2;ratioP2;P2;SDS_P1;SDS_P2;PMS_P1;PMS_P2;Temp;Humidity;BMP_temperature;BMP_pressure;BME280_temperature;BME280_humidity;BME280_pressure;Samples;Min_cycle;Max_cycle;Signal;HPM_P1;HPM_P2
2022/12/02 00:00:40;;;;;;;61.28;28.77;;;5.40;99.90;;;;;;4156577;28;20065;-69
2022/12/02 00:02:40;;;;;;;67.60;30.65;;;5.40;99.90;;;;;;4149542;28;20476;-70
2022/12/02 00:04:41;;;;;;;63.78;31.15;;;5.20;99.90;;;;;;4151609;28;20081;-69
2022/12/02 00:06:42;;;;;;;63.30;29.67;;;5.10;99.90;;;;;;4157913;28;20449;-70
2022/12/02 00:08:42;;;;;;;65.05;30.63;;;5.00;99.90;;;;;;4158444;28;20087;-70
2022/12/02 00:10:43;;;;;;;67.30;30.88;;;4.90;99.90;;;;;;4152020;28;20406;-69
2022/12/02 00:12:44;;;;;;;65.80;30.27;;;4.80;99.90;;;;;;4155587;28;20042;-69
2022/12/02 00:14:45;;;;;;;66.22;30.35;;;4.80;99.90;;;;;;4152632;28;20445;-70
2022/12/02 00:16:45;;;;;;;69.57;32.10;;;4.80;99.90;;;;;;4151582;28;20036;-69
2022/12/02 00:18:46;;;;;;;65.45;29.92;;;4.70;99.90;;;;;;4152235;28;20049;-70
2022/12/02 00:20:47;;;;;;;55.28;27.02;;;4.80;99.90;;;;;;4153440;28;20082;-69
2022/12/02 00:22:47;;;;;;;66.00;30.88;;;4.80;99.90;;;;;;4152330;28;20065;-70
2022/12/02 00:24:48;;;;;;;60.15;30.10;;;4.70;99.90;;;;;;4151646;28;20396;-70
2022/12/02 00:26:49;;;;;;;60.55;28.42;;;4.70;99.90;;;;;;4148119;28;20401;-70
2022/12/02 00:28:49;;;;;;;53.08;25.85;;;4.80;99.90;;;;;;4156321;28;20081;-70
2022/12/02 00:30:50;;;;;;;60.67;27.08;;;4.90;99.90;;;;;;4152044;28;20510;-69
2022/12/02 00:32:50;;;;;;;51.20;25.42;;;5.00;99.90;;;;;;4150409;28;20485;-69
2022/12/02 00:34:51;;;;;;;56.90;27.00;;;5.00;99.90;;;;;;4152959;28;20036;-69
2022/12/02 00:36:52;;;;;;;57.50;27.25;;;5.10;99.90;;;;;;4151996;28;20469;-68
2022/12/02 00:38:53;;;;;;;55.58;26.70;;;5.10;99.90;;;;;;4151151;28;20396;-70
2022/12/02 00:40:54;;;;;;;54.77;26.80;;;5.30;99.90;;;;;;4154769;28;20029;-69
2022/12/02 00:46:30;;;;;;;54.42;26.75;;;5.40;99.90;;;;;;4150822;28;20030;-69
2022/12/02 00:47:35;;;;;;;60.83;30.15;;;5.40;99.90;;;;;;4151237;28;20081;-70
2022/12/02 00:49:36;;;;;;;55.28;26.73;;;5.10;99.90;;;;;;4145179;28;20026;-69
2022/12/02 00:51:38;;;;;;;62.45;28.38;;;5.20;99.90;;;;;;4154216;28;20045;-69
2022/12/02 00:53:38;;;;;;;57.92;28.52;;;5.30;99.90;;;;;;4150165;28;20099;-69
2022/12/02 00:55:39;;;;;;;50.88;25.95;;;5.20;99.90;;;;;;4155065;28;20033;-70
2022/12/02 00:57:40;;;;;;;55.22;26.30;;;5.40;99.90;;;;;;4154889;28;20049;-70
2022/12/02 00:59:40;;;;;;;59.38;27.75;;;5.40;99.90;;;;;;4147130;28;20084;-69
2022/12/02 01:01:43;;;;;;;68.10;30.25;;;5.40;99.90;;;;;;4149563;28;20476;-69
2022/12/02 01:03:44;;;;;;;65.60;29.85;;;5.30;99.90;;;;;;4154533;28;20358;-69
2022/12/02 01:05:44;;;;;;;56.78;27.35;;;5.30;99.90;;;;;;4153957;28;20044;-69
2022/12/02 01:07:45;;;;;;;63.72;30.05;;;5.30;99.90;;;;;;4153579;28;20037;-70
2022/12/02 01:09:45;;;;;;;65.50;30.48;;;5.20;99.90;;;;;;4153322;28;20113;-70
2022/12/02 01:11:46;;;;;;;59.67;29.35;;;5.20;99.90;;;;;;4150082;28;20053;-69
2022/12/02 01:13:47;;;;;;;50.47;25.55;;;5.30;99.90;;;;;;4149862;28;20473;-69
2022/12/02 01:15:47;;;;;;;55.45;27.98;;;5.40;99.90;;;;;;4150103;28;20496;-70
2022/12/02 01:17:48;;;;;;;55.85;27.10;;;5.40;99.90;;;;;;4155206;28;20037;-69
2022/12/02 01:19:49;;;;;;;51.75;26.23;;;5.40;99.90;;;;;;4153556;28;20029;-69
2022/12/02 01:21:49;;;;;;;67.10;31.15;;;5.40;99.90;;;;;;4149850;28;20033;-70
2022/12/02 01:23:50;;;;;;;62.17;28.92;;;5.20;99.90;;;;;;4152800;28;20451;-69
2022/12/02 01:25:50;;;;;;;58.47;29.35;;;5.20;99.90;;;;;;4155644;28;20064;-69
2022/12/02 01:27:51;;;;;;;63.05;30.50;;;5.10;99.90;;;;;;4151189;28;20129;-69
2022/12/02 01:29:52;;;;;;;56.63;26.98;;;5.10;99.90;;;;;;4155914;28;20057;-69
2022/12/02 01:31:54;;;;;;;64.30;28.77;;;5.10;99.90;;;;;;4154051;28;20029;-68
2022/12/02 01:33:55;;;;;;;62.45;31.00;;;5.10;99.90;;;;;;4148825;28;20401;-69
2022/12/02 01:35:55;;;;;;;62.42;29.25;;;5.20;99.90;;;;;;4153234;28;20064;-69
2022/12/02 01:37:56;;;;;;;63.25;30.30;;;5.20;99.90;;;;;;4155143;28;20492;-69
2022/12/02 01:39:56;;;;;;;64.63;31.55;;;5.10;99.90;;;;;;4153117;28;20042;-69
2022/12/02 01:41:57;;;;;;;62.42;30.73;;;5.10;99.90;;;;;;4153824;28;20030;-69
2022/12/02 01:43:58;;;;;;;69.70;32.17;;;4.90;99.90;;;;;;4154983;28;20373;-69
2022/12/02 01:45:59;;;;;;;67.13;31.45;;;4.90;99.90;;;;;;4149912;28;20508;-69
2022/12/02 01:48:01;;;;;;;82.47;34.30;;;4.90;99.90;;;;;;4148658;28;20125;-69
2022/12/02 01:50:03;;;;;;;79.28;35.05;;;4.80;99.90;;;;;;4146654;28;20088;-69
2022/12/02 01:52:03;;;;;;;68.13;31.85;;;4.60;99.90;;;;;;4131807;28;20045;-70
2022/12/02 01:54:04;;;;;;;68.85;31.35;;;4.60;99.90;;;;;;4152025;28;20140;-69
2022/12/02 01:56:05;;;;;;;75.35;33.20;;;4.60;99.90;;;;;;4147069;28;20124;-69
2022/12/02 01:58:09;;;;;;;74.25;33.38;;;4.60;99.90;;;;;;4152951;28;20121;-69
2022/12/02 02:00:10;;;;;;;76.78;32.92;;;4.60;99.90;;;;;;4141096;28;20038;-69
2022/12/02 02:02:27;;;;;;;70.80;31.23;;;4.50;99.90;;;;;;4147520;28;20480;-69
2022/12/02 02:04:28;;;;;;;64.30;28.88;;;4.60;99.90;;;;;;4152212;28;20034;-69
2022/12/02 02:06:35;;;;;;;66.82;29.52;;;4.70;99.90;;;;;;4154586;28;20092;-69
2022/12/02 02:08:36;;;;;;;62.10;28.73;;;4.70;99.90;;;;;;4155127;28;20034;-69
2022/12/02 02:10:38;;;;;;;60.47;28.52;;;4.80;99.90;;;;;;4147751;28;20041;-69
2022/12/02 02:12:39;;;;;;;;;;;4.90;99.90;;;;;;4134327;28;20104;-70
2022/12/02 02:14:39;;;;;;;64.15;29.80;;;4.80;99.90;;;;;;4155049;28;20387;-70
2022/12/02 02:16:40;;;;;;;66.10;29.13;;;4.90;99.90;;;;;;4149440;28;20038;-69
2022/12/02 02:18:41;;;;;;;70.47;31.65;;;4.90;99.90;;;;;;4151272;28;20507;-68
2022/12/02 02:20:42;;;;;;;68.32;30.17;;;4.90;99.90;;;;;;4148619;28;20041;-69
2022/12/02 02:23:05;;;;;;;65.63;29.88;;;4.90;99.90;;;;;;4147445;28;20428;-69
2022/12/02 02:25:12;;;;;;;70.07;32.20;;;5.10;99.90;;;;;;4147627;28;20610;-70
2022/12/02 02:27:12;;;;;;;63.97;30.23;;;5.10;99.90;;;;;;4152411;28;20037;-70
2022/12/02 02:29:13;;;;;;;64.97;29.50;;;5.20;99.90;;;;;;4149856;28;20092;-69
2022/12/02 02:31:15;;;;;;;64.47;30.02;;;5.30;99.90;;;;;;4154300;28;20450;-69
2022/12/02 02:33:15;;;;;;;67.22;30.27;;;5.30;99.90;;;;;;4154567;28;20061;-69
2022/12/02 02:35:18;;;;;;;67.50;29.60;;;5.20;99.90;;;;;;4148501;28;20038;-70
2022/12/02 02:37:19;;;;;;;;;;;5.30;99.90;;;;;;4150267;28;20045;-69
2022/12/02 02:39:21;;;;;;;70.22;29.92;;;5.30;99.90;;;;;;4150552;28;19913;-69
2022/12/02 02:41:22;;;;;;;;;;;5.30;99.90;;;;;;4149481;28;20034;-69
2022/12/02 02:43:25;;;;;;;60.45;25.25;;;5.40;99.90;;;;;;4154197;28;19909;-69
2022/12/02 02:45:29;;;;;;;65.05;28.00;;;5.40;99.90;;;;;;4130580;28;20045;-69
2022/12/02 02:47:30;;;;;;;63.92;29.00;;;5.50;99.90;;;;;;4152858;28;20052;-69
2022/12/02 02:49:31;;;;;;;65.40;28.63;;;5.50;99.90;;;;;;4145951;28;20125;-69
2022/12/02 02:51:32;;;;;;;69.90;29.85;;;5.60;99.90;;;;;;4148770;28;20376;-69
2022/12/02 02:53:32;;;;;;;62.00;27.63;;;5.60;99.90;;;;;;4146483;28;20172;-69
2022/12/02 02:55:34;;;;;;;59.33;27.45;;;5.60;99.90;;;;;;4150000;28;20033;-69
2022/12/02 02:57:35;;;;;;;60.08;28.30;;;5.70;99.90;;;;;;4149333;28;20091;-69
2022/12/02 02:59:41;;;;;;;61.35;27.98;;;5.70;99.90;;;;;;4146441;28;20056;-69
2022/12/02 03:01:44;;;;;;;58.83;27.80;;;5.80;99.90;;;;;;4145541;28;20029;-70
2022/12/02 03:03:50;;;;;;;53.50;26.27;;;5.80;99.90;;;;;;4149642;28;20038;-69
2022/12/02 03:05:52;;;;;;;54.95;26.33;;;5.80;99.90;;;;;;4146509;28;20030;-69
2022/12/02 03:07:53;;;;;;;59.70;27.00;;;5.80;99.90;;;;;;4150810;28;20053;-70
2022/12/02 03:09:54;;;;;;;51.75;24.80;;;5.80;99.90;;;;;;4148328;28;20084;-69
2022/12/02 03:11:56;;;;;;;51.33;24.73;;;5.80;99.90;;;;;;4151124;28;20116;-69
2022/12/02 03:13:57;;;;;;;49.22;23.85;;;5.80;99.90;;;;;;4151203;28;20059;-69
2022/12/02 03:15:59;;;;;;;51.05;23.95;;;5.80;99.90;;;;;;4153061;28;20065;-70
2022/12/02 03:18:00;;;;;;;50.75;24.30;;;5.80;99.90;;;;;;4149288;28;20092;-70
2022/12/02 03:20:01;;;;;;;52.78;24.48;;;5.80;99.90;;;;;;4144643;28;20489;-69
2022/12/02 03:22:02;;;;;;;49.35;24.42;;;5.80;99.90;;;;;;4149134;28;20092;-70
2022/12/02 03:24:04;;;;;;;54.00;25.85;;;5.90;99.90;;;;;;4144716;28;20046;-69
2022/12/02 03:26:05;;;;;;;50.63;23.80;;;5.80;99.90;;;;;;4144484;28;20486;-70
2022/12/02 03:28:06;;;;;;;47.83;22.45;;;5.80;99.90;;;;;;4143468;28;20265;-69
2022/12/02 03:30:07;;;;;;;52.22;24.75;;;5.80;99.90;;;;;;4146414;28;20042;-70
2022/12/02 03:32:09;;;;;;;51.67;24.75;;;5.80;99.90;;;;;;4149771;28;20120;-70
2022/12/02 03:34:10;;;;;;;49.42;25.63;;;5.90;99.90;;;;;;4153484;28;20041;-70
2022/12/02 03:36:11;;;;;;;49.70;23.50;;;5.90;99.90;;;;;;4149922;28;20049;-69
2022/12/02 03:38:12;;;;;;;50.95;24.60;;;5.90;99.90;;;;;;4147880;28;20476;-69
2022/12/02 03:40:12;;;;;;;54.97;25.38;;;5.90;99.90;;;;;;4149075;28;20034;-69
2022/12/02 03:42:14;;;;;;;49.97;23.77;;;5.90;99.90;;;;;;4146746;28;20118;-69
2022/12/02 03:44:15;;;;;;;51.72;23.95;;;6.00;99.90;;;;;;4148605;28;20314;-70
2022/12/02 03:46:15;;;;;;;49.30;24.50;;;5.90;99.90;;;;;;4145580;28;20034;-69
2022/12/02 03:48:21;;;;;;;51.63;24.45;;;5.90;99.90;;;;;;4149077;28;20109;-69
2022/12/02 03:50:22;;;;;;;57.83;25.08;;;6.00;99.90;;;;;;4142639;28;20617;-70
2022/12/02 03:52:22;;;;;;;45.80;23.77;;;6.00;99.90;;;;;;4148975;28;20033;-69
2022/12/02 03:54:23;;;;;;;49.83;23.88;;;6.00;99.90;;;;;;4151447;28;20392;-69
2022/12/02 03:56:24;;;;;;;46.60;22.02;;;6.00;99.90;;;;;;4152749;28;20038;-69
2022/12/02 03:58:59;;;;;;;47.15;23.33;;;6.00;99.90;;;;;;4147022;28;20033;-70
2022/12/02 04:01:00;;;;;;;53.17;23.83;;;6.00;99.90;;;;;;4089946;29;20126;-69
2022/12/02 04:03:01;;;;;;;47.78;23.40;;;6.00;99.90;;;;;;4121060;28;20034;-69
2022/12/02 04:05:02;;;;;;;45.22;22.38;;;6.00;99.90;;;;;;4147961;28;20038;-69
2022/12/02 04:07:02;;;;;;;49.67;23.38;;;6.00;99.90;;;;;;4146981;28;20072;-70
2022/12/02 04:09:03;;;;;;;49.78;24.35;;;6.00;99.90;;;;;;4143236;28;20105;-69
2022/12/02 04:11:04;;;;;;;48.63;23.20;;;6.00;99.90;;;;;;4145260;28;20077;-69
2022/12/02 04:13:04;;;;;;;49.30;23.77;;;6.00;99.90;;;;;;4144809;28;20149;-70
2022/12/02 04:15:06;;;;;;;48.05;23.27;;;6.00;99.90;;;;;;4148172;28;20033;-70
2022/12/02 04:17:07;;;;;;;52.22;23.92;;;6.00;99.90;;;;;;4145873;28;20045;-69
2022/12/02 04:19:07;;;;;;;57.45;26.98;;;6.10;99.90;;;;;;4148661;28;20471;-70
2022/12/02 04:21:08;;;;;;;51.25;24.65;;;6.10;99.90;;;;;;4146780;28;20069;-70
2022/12/02 04:23:09;;;;;;;51.42;24.52;;;6.00;99.90;;;;;;4146998;28;20169;-69
2022/12/02 04:25:09;;;;;;;46.78;23.40;;;6.10;99.90;;;;;;4144261;28;20026;-71
2022/12/02 04:27:10;;;;;;;46.15;23.42;;;6.00;99.90;;;;;;4145693;28;20030;-69
2022/12/02 04:29:10;;;;;;;48.60;22.17;;;6.10;99.90;;;;;;4147230;28;20120;-69
2022/12/02 04:31:11;;;;;;;48.58;22.55;;;6.00;99.90;;;;;;4144207;28;20473;-70
2022/12/02 04:33:11;;;;;;;50.22;23.60;;;6.00;99.90;;;;;;4147586;28;20515;-69
2022/12/02 04:35:12;;;;;;;47.75;23.30;;;6.00;99.90;;;;;;4144265;28;20026;-70
2022/12/02 04:37:13;;;;;;;44.50;22.23;;;6.00;99.90;;;;;;4148870;28;20477;-69
2022/12/02 04:39:13;;;;;;;43.88;21.70;;;6.00;99.90;;;;;;4144730;28;20053;-69
2022/12/02 04:41:14;;;;;;;51.63;24.67;;;6.00;99.90;;;;;;4147198;28;20049;-69
2022/12/02 04:43:14;;;;;;;45.30;23.10;;;6.00;99.90;;;;;;4146778;28;20125;-69
2022/12/02 04:45:15;;;;;;;46.22;23.35;;;5.90;99.90;;;;;;4148980;28;20109;-69
2022/12/02 04:47:16;;;;;;;45.95;23.67;;;5.90;99.90;;;;;;4145786;28;20046;-69
2022/12/02 04:49:16;;;;;;;42.85;22.00;;;5.80;99.90;;;;;;4152827;28;20129;-69
2022/12/02 04:51:17;;;;;;;45.22;21.00;;;5.80;99.90;;;;;;4144765;28;20037;-69
2022/12/02 04:53:18;;;;;;;43.25;21.33;;;5.90;99.90;;;;;;4145906;28;20049;-69
2022/12/02 04:55:18;;;;;;;47.88;21.83;;;5.90;99.90;;;;;;4145221;28;20026;-69
2022/12/02 04:57:19;;;;;;;46.13;22.70;;;5.90;99.90;;;;;;4145143;28;20095;-70
2022/12/02 04:59:19;;;;;;;47.92;21.48;;;5.90;99.90;;;;;;4150278;28;20048;-69
2022/12/02 05:01:20;;;;;;;46.28;21.50;;;5.90;99.90;;;;;;4145250;28;20034;-70
2022/12/02 05:03:20;;;;;;;42.85;21.48;;;5.90;99.90;;;;;;4145508;28;20077;-70
2022/12/02 05:05:21;;;;;;;45.42;21.40;;;5.90;99.90;;;;;;4145771;28;20038;-70
2022/12/02 05:07:22;;;;;;;44.28;20.83;;;5.90;99.90;;;;;;4152701;28;20072;-70
2022/12/02 05:09:22;;;;;;;48.30;22.38;;;5.90;99.90;;;;;;4146166;28;20042;-69
2022/12/02 05:11:23;;;;;;;45.60;22.13;;;5.90;99.90;;;;;;4149236;28;20358;-69
2022/12/02 05:13:23;;;;;;;45.20;20.05;;;5.90;99.90;;;;;;4144410;28;20045;-69
2022/12/02 05:15:24;;;;;;;45.63;21.25;;;5.90;99.90;;;;;;4150177;28;20041;-70
2022/12/02 05:17:24;;;;;;;41.97;21.63;;;5.90;99.90;;;;;;4147367;28;20030;-69
2022/12/02 05:19:25;;;;;;;49.55;21.60;;;5.90;99.90;;;;;;4146315;28;20038;-69
2022/12/02 05:21:26;;;;;;;44.65;20.75;;;5.90;99.90;;;;;;4147712;28;20042;-69
2022/12/02 05:23:26;;;;;;;43.83;21.88;;;5.90;99.90;;;;;;4146621;28;20067;-69
2022/12/02 05:25:27;;;;;;;47.45;22.45;;;5.90;99.90;;;;;;4145101;28;20392;-69
2022/12/02 05:27:27;;;;;;;45.50;21.25;;;5.80;99.90;;;;;;4149987;28;20041;-70
2022/12/02 05:29:28;;;;;;;44.13;20.67;;;5.90;99.90;;;;;;4146705;28;20050;-70
2022/12/02 05:31:28;;;;;;;45.30;21.30;;;5.90;99.90;;;;;;4147116;28;20032;-69
2022/12/02 05:33:29;;;;;;;43.05;20.05;;;5.90;99.90;;;;;;4149335;28;20065;-70
2022/12/02 05:35:30;;;;;;;43.42;21.05;;;5.80;99.90;;;;;;4151664;28;20045;-70
2022/12/02 05:37:30;;;;;;;45.53;21.08;;;5.80;99.90;;;;;;4150055;28;20053;-69
2022/12/02 05:39:31;;;;;;;46.47;21.70;;;5.70;99.90;;;;;;4133159;28;20056;-70
2022/12/02 05:41:32;;;;;;;45.40;21.92;;;5.70;99.90;;;;;;4149237;28;20045;-69
2022/12/02 05:43:39;;;;;;;43.90;21.40;;;5.80;99.90;;;;;;4153339;28;20507;-69
2022/12/02 05:45:40;;;;;;;45.88;22.20;;;5.80;99.90;;;;;;4142222;28;20041;-69
2022/12/02 05:47:41;;;;;;;43.75;20.20;;;5.80;99.90;;;;;;4144447;28;20034;-70
2022/12/02 05:49:43;;;;;;;38.92;19.92;;;5.80;99.90;;;;;;4142380;28;20033;-70
2022/12/02 05:51:45;;;;;;;;;;;5.80;99.90;;;;;;4145872;28;20045;-69
2022/12/02 05:53:47;;;;;;;41.78;19.63;;;5.80;99.90;;;;;;4140854;28;19925;-69
2022/12/02 05:55:49;;;;;;;48.13;22.00;;;5.80;99.90;;;;;;4142856;28;20069;-70
2022/12/02 05:57:53;;;;;;;45.03;21.10;;;5.70;99.90;;;;;;4143919;28;20061;-69
2022/12/02 06:00:09;;;;;;;48.38;20.92;;;5.70;99.90;;;;;;4146032;28;20033;-70
2022/12/02 06:02:23;;;;;;;42.08;19.05;;;5.70;99.90;;;;;;4144555;28;20045;-70
2022/12/02 06:04:27;;;;;;;45.22;21.20;;;5.70;99.90;;;;;;4142000;28;20447;-70
2022/12/02 06:06:31;;;;;;;44.83;20.02;;;5.80;99.90;;;;;;4146180;28;20431;-69
2022/12/02 06:08:32;;;;;;;46.97;22.20;;;5.70;99.90;;;;;;4149193;28;20477;-69
2022/12/02 06:10:34;;;;;;;50.05;22.45;;;5.60;99.90;;;;;;4148340;28;20034;-70
2022/12/02 06:12:35;;;;;;;42.42;20.75;;;5.60;99.90;;;;;;4152282;28;20034;-70
2022/12/02 06:14:36;;;;;;;47.60;21.48;;;5.60;99.90;;;;;;4152023;28;20077;-70
2022/12/02 06:16:36;;;;;;;47.53;21.25;;;5.70;99.90;;;;;;4146167;28;20049;-70
2022/12/02 06:18:38;;;;;;;45.78;21.40;;;5.60;99.90;;;;;;4147224;28;20057;-70
2022/12/02 06:20:39;;;;;;;42.97;21.83;;;5.60;99.90;;;;;;4145560;28;20065;-70
2022/12/02 06:22:40;;;;;;;48.58;22.08;;;5.60;99.90;;;;;;4142304;28;20037;-70
2022/12/02 06:24:41;;;;;;;46.78;21.73;;;5.60;99.90;;;;;;4147823;28;20048;-70
2022/12/02 06:26:42;;;;;;;48.45;22.38;;;5.50;99.90;;;;;;4147255;28;20116;-69
2022/12/02 06:28:44;;;;;;;49.75;22.88;;;5.50;99.90;;;;;;4147891;28;20045;-70
2022/12/02 06:30:45;;;;;;;50.83;23.00;;;5.30;99.90;;;;;;4140718;28;20042;-69
2022/12/02 06:32:52;;;;;;;43.85;21.38;;;5.30;99.90;;;;;;4141968;28;20041;-69
2022/12/02 06:34:53;;;;;;;48.03;21.63;;;5.30;99.90;;;;;;4142403;28;20464;-70
2022/12/02 06:36:57;;;;;;;46.08;20.58;;;5.30;99.90;;;;;;4147867;28;20064;-70
2022/12/02 06:39:02;;;;;;;41.85;20.58;;;5.30;99.90;;;;;;4144482;28;20033;-69
2022/12/02 06:41:20;;;;;;;46.22;22.13;;;5.30;99.90;;;;;;4142116;28;20794;-70
2022/12/02 06:43:28;;;;;;;44.72;18.92;;;5.20;99.90;;;;;;4141854;28;20037;-70
2022/12/02 06:45:33;;;;;;;42.45;18.88;;;5.20;99.90;;;;;;4144854;28;20116;-70
2022/12/02 06:47:35;;;;;;;36.72;17.05;;;5.20;99.90;;;;;;4141362;28;20161;-70
2022/12/02 06:49:39;;;;;;;35.78;17.75;;;5.20;99.90;;;;;;4127820;28;20393;-70
2022/12/02 06:51:39;;;;;;;33.88;16.98;;;5.20;99.90;;;;;;4148791;28;20057;-70
2022/12/02 06:53:41;;;;;;;40.53;18.77;;;5.10;99.90;;;;;;4148719;28;20111;-70
2022/12/02 06:55:42;;;;;;;37.70;17.70;;;4.90;99.90;;;;;;4147969;28;20060;-70
2022/12/02 06:57:43;;;;;;;33.35;17.08;;;4.80;99.90;;;;;;4149336;28;20280;-70
2022/12/02 06:59:47;;;;;;;34.47;16.55;;;4.90;99.90;;;;;;4147354;28;20667;-70
2022/12/02 07:01:51;;;;;;;32.45;16.63;;;4.90;99.90;;;;;;4143644;28;20140;-70
2022/12/02 07:04:01;;;;;;;30.15;16.48;;;4.90;99.90;;;;;;4148605;28;20551;-69
2022/12/02 07:06:14;;;;;;;36.42;15.70;;;4.90;99.90;;;;;;4140985;28;20516;-69
2022/12/02 07:08:15;;;;;;;35.38;16.48;;;5.00;99.90;;;;;;4151594;28;20029;-69
2022/12/02 07:10:24;;;;;;;33.08;16.30;;;5.10;99.90;;;;;;4148223;28;20039;-70
2022/12/02 07:12:41;;;;;;;33.83;15.82;;;5.00;99.90;;;;;;4148992;28;21134;-69
2022/12/02 07:15:23;;;;;;;35.67;16.83;;;5.00;99.90;;;;;;4150739;28;20148;-70
2022/12/02 07:17:39;;;;;;;39.95;16.38;;;5.00;99.90;;;;;;4146334;28;20064;-69
2022/12/02 07:19:44;;;;;;;36.53;16.67;;;4.90;99.90;;;;;;4147219;28;20494;-69
2022/12/02 07:21:46;;;;;;;40.95;17.95;;;5.10;99.90;;;;;;4142534;28;20065;-70
2022/12/02 07:23:46;;;;;;;38.00;17.83;;;4.90;99.90;;;;;;4150746;28;20400;-70
2022/12/02 07:25:49;;;;;;;39.53;17.20;;;4.80;99.90;;;;;;4143523;28;20031;-70
2022/12/02 07:27:50;;;;;;;35.70;16.80;;;4.90;99.90;;;;;;4146799;28;20053;-70
2022/12/02 07:29:52;;;;;;;38.65;17.70;;;4.80;99.90;;;;;;4147826;28;20491;-70
2022/12/02 07:31:52;;;;;;;37.83;18.13;;;4.90;99.90;;;;;;4148004;28;20663;-70
2022/12/02 07:33:53;;;;;;;41.38;18.83;;;4.80;99.90;;;;;;4145628;28;20156;-69
2022/12/02 07:35:54;;;;;;;37.50;18.20;;;4.80;99.90;;;;;;4148869;28;20037;-69
2022/12/02 07:37:56;;;;;;;42.50;19.00;;;4.60;99.90;;;;;;4141790;28;20537;-70
2022/12/02 07:39:57;;;;;;;37.90;17.15;;;4.70;99.90;;;;;;4149212;28;20040;-70
2022/12/02 07:41:57;;;;;;;40.67;17.75;;;4.60;99.90;;;;;;4145280;28;20053;-70
2022/12/02 07:43:58;;;;;;;36.28;16.63;;;4.70;99.90;;;;;;4149785;28;20049;-70
2022/12/02 07:45:59;;;;;;;37.85;17.20;;;4.70;99.90;;;;;;4146877;28;20125;-70
2022/12/02 07:47:59;;;;;;;38.45;17.65;;;4.60;99.90;;;;;;4144473;28;20037;-71
2022/12/02 07:50:00;;;;;;;38.70;17.40;;;4.70;99.90;;;;;;4138650;28;21475;-70
2022/12/02 07:52:01;;;;;;;41.70;18.83;;;4.70;99.90;;;;;;4144227;28;20034;-70
2022/12/02 07:54:02;;;;;;;33.05;16.30;;;4.60;99.90;;;;;;4145909;28;20049;-70
2022/12/02 07:56:03;;;;;;;33.28;16.42;;;4.80;99.90;;;;;;4144814;28;20069;-70
2022/12/02 07:58:04;;;;;;;38.78;18.02;;;4.80;99.90;;;;;;4145587;28;20127;-70
2022/12/02 08:00:06;;;;;;;37.35;17.23;;;4.70;99.90;;;;;;4125696;28;20465;-71
2022/12/02 08:02:07;;;;;;;;;;;4.80;99.90;;;;;;4142269;28;20037;-70
2022/12/02 08:04:08;;;;;;;44.33;18.52;;;5.00;99.90;;;;;;4141425;28;19988;-70
2022/12/02 08:06:08;;;;;;;47.75;21.33;;;4.90;99.90;;;;;;4144576;28;20033;-70
2022/12/02 08:08:09;;;;;;;51.40;21.90;;;5.10;99.90;;;;;;4145880;28;20035;-70
2022/12/02 08:10:10;;;;;;;44.17;20.50;;;4.90;99.90;;;;;;4140147;28;20037;-71
2022/12/02 08:12:10;;;;;;;48.55;20.35;;;4.90;99.90;;;;;;4141517;28;20113;-70
2022/12/02 08:14:11;;;;;;;51.15;19.52;;;5.00;99.90;;;;;;4147566;28;20091;-70
2022/12/02 08:16:12;;;;;;;45.65;20.45;;;4.90;99.90;;;;;;4147549;28;20046;-70
2022/12/02 08:18:12;;;;;;;54.42;22.83;;;5.00;99.90;;;;;;4145266;28;20042;-70
2022/12/02 08:20:13;;;;;;;58.72;24.10;;;4.90;99.90;;;;;;4145949;28;20045;-71
2022/12/02 08:22:14;;;;;;;54.75;24.42;;;4.80;99.90;;;;;;4148372;28;20037;-70
2022/12/02 08:24:14;;;;;;;48.83;21.70;;;4.80;99.90;;;;;;4145015;28;20052;-69
2022/12/02 08:26:15;;;;;;;50.90;21.73;;;4.80;99.90;;;;;;4146900;28;20037;-70
2022/12/02 08:28:16;;;;;;;49.20;21.70;;;4.80;99.90;;;;;;4150626;28;20041;-70
2022/12/02 08:30:16;;;;;;;56.70;23.67;;;4.90;99.90;;;;;;4145212;28;20113;-70
2022/12/02 08:32:18;;;;;;;55.55;23.83;;;4.90;99.90;;;;;;4150930;28;20117;-70
2022/12/02 08:34:18;;;;;;;60.50;23.92;;;5.00;99.90;;;;;;4149660;28;20504;-70
2022/12/02 08:36:19;;;;;;;50.33;23.40;;;5.10;99.90;;;;;;4149320;28;20081;-70
2022/12/02 08:38:20;;;;;;;52.22;23.33;;;5.10;99.90;;;;;;4151223;28;20048;-70
2022/12/02 08:40:21;;;;;;;65.68;26.83;;;4.90;99.90;;;;;;4146557;28;20077;-70
2022/12/02 08:42:23;;;;;;;53.58;23.80;;;4.90;99.90;;;;;;4144831;28;20401;-70
2022/12/02 08:44:23;;;;;;;55.97;23.95;;;4.90;99.90;;;;;;4144568;28;20057;-70
2022/12/02 08:46:24;;;;;;;60.47;24.65;;;4.90;99.90;;;;;;4142995;28;20042;-70
2022/12/02 08:48:25;;;;;;;56.55;24.35;;;5.00;99.90;;;;;;4148851;28;20757;-70
2022/12/02 08:50:25;;;;;;;63.47;25.77;;;4.90;99.90;;;;;;4143374;28;20042;-70
2022/12/02 08:52:26;;;;;;;58.95;25.92;;;4.90;99.90;;;;;;4150052;28;20042;-70
2022/12/02 08:54:27;;;;;;;54.25;23.60;;;4.80;99.90;;;;;;4147493;28;20041;-70
2022/12/02 08:56:27;;;;;;;54.38;24.05;;;4.80;99.90;;;;;;4147139;28;20038;-70
2022/12/02 08:58:28;;;;;;;57.25;23.33;;;4.80;99.90;;;;;;4151632;28;20042;-70
2022/12/02 09:00:28;;;;;;;60.15;25.33;;;4.90;99.90;;;;;;4143855;28;21656;-70
2022/12/02 09:02:29;;;;;;;60.90;25.63;;;4.70;99.90;;;;;;4149405;28;20455;-70
2022/12/02 09:04:30;;;;;;;59.78;24.55;;;4.70;99.90;;;;;;4148489;28;20439;-71
2022/12/02 09:06:30;;;;;;;66.60;27.40;;;4.80;99.90;;;;;;4143179;28;20117;-70
2022/12/02 09:08:31;;;;;;;57.92;25.30;;;4.60;99.90;;;;;;4145764;28;20045;-70
2022/12/02 09:10:32;;;;;;;51.63;23.85;;;4.60;99.90;;;;;;4141632;28;20042;-69
2022/12/02 09:12:32;;;;;;;51.25;23.35;;;4.80;99.90;;;;;;4141122;28;20838;-70
2022/12/02 09:14:33;;;;;;;56.30;23.98;;;4.90;99.90;;;;;;4148888;28;20062;-70
2022/12/02 09:16:34;;;;;;;57.58;25.25;;;4.90;99.90;;;;;;4148075;28;20042;-70
2022/12/02 09:18:34;;;;;;;52.72;24.15;;;5.00;99.90;;;;;;4147645;28;20129;-69
2022/12/02 09:20:35;;;;;;;52.00;23.77;;;5.10;99.90;;;;;;4147125;28;20038;-70
2022/12/02 09:22:35;;;;;;;61.63;26.52;;;5.00;99.90;;;;;;4139115;28;20099;-69
2022/12/02 09:24:36;;;;;;;56.83;24.92;;;4.70;99.90;;;;;;4121615;28;20042;-70
2022/12/02 09:26:36;;;;;;;56.95;25.10;;;4.90;99.90;;;;;;4115363;28;20092;-69
2022/12/02 09:28:37;;;;;;;57.40;25.98;;;4.90;99.90;;;;;;4123392;28;20100;-69
2022/12/02 09:30:38;;;;;;;62.53;26.50;;;4.90;99.90;;;;;;4115499;28;20046;-69
2022/12/02 09:32:39;;;;;;;54.85;25.60;;;4.90;99.90;;;;;;4125106;28;20039;-69
2022/12/02 09:34:40;;;;;;;54.58;25.05;;;4.80;99.90;;;;;;4143104;28;20200;-69
2022/12/02 09:36:41;;;;;;;58.50;25.02;;;4.60;99.90;;;;;;4142098;28;20409;-69
2022/12/02 09:38:41;;;;;;;53.50;24.65;;;4.70;99.90;;;;;;4144163;28;20107;-70
2022/12/02 09:40:42;;;;;;;58.80;25.98;;;4.60;99.90;;;;;;4143246;28;20485;-69
2022/12/02 09:42:43;;;;;;;57.95;24.88;;;4.60;99.90;;;;;;4152333;28;20090;-69
2022/12/02 09:44:45;;;;;;;55.95;24.85;;;4.70;99.90;;;;;;4148607;28;20034;-69
2022/12/02 09:46:46;;;;;;;55.17;25.05;;;4.70;99.90;;;;;;4146317;28;20038;-69
2022/12/02 09:48:47;;;;;;;53.33;25.60;;;4.70;99.90;;;;;;4132944;28;20036;-70
2022/12/02 09:50:49;;;;;;;53.33;23.85;;;4.80;99.90;;;;;;4141619;28;20052;-70
2022/12/02 09:52:50;;;;;;;55.22;24.70;;;4.80;99.90;;;;;;4143878;28;20514;-71
2022/12/02 09:54:55;;;;;;;52.70;23.95;;;4.80;99.90;;;;;;4148880;28;20053;-71
2022/12/02 09:56:56;;;;;;;66.13;28.52;;;4.80;99.90;;;;;;4145991;28;20037;-71
2022/12/02 09:58:57;;;;;;;63.63;27.33;;;4.50;99.90;;;;;;4145521;28;20038;-71
2022/12/02 10:00:58;;;;;;;58.25;27.00;;;4.50;99.90;;;;;;4141779;28;20030;-71
2022/12/02 10:02:58;;;;;;;54.63;25.10;;;4.40;99.90;;;;;;4149332;28;20046;-71
2022/12/02 10:05:06;;;;;;;63.72;27.40;;;4.50;99.90;;;;;;4145675;28;20100;-71
2022/12/02 10:07:08;;;;;;;55.92;25.90;;;4.40;99.90;;;;;;4146197;28;20034;-71
2022/12/02 10:09:14;;;;;;;;;;;4.40;99.90;;;;;;4145153;28;20033;-71
2022/12/02 10:11:26;;;;;;;58.83;25.10;;;4.30;99.90;;;;;;4146950;28;19924;-71
2022/12/02 10:13:27;;;;;;;56.85;23.52;;;4.40;99.90;;;;;;4143897;28;20058;-71
2022/12/02 10:15:30;;;;;;;53.97;23.75;;;4.40;99.90;;;;;;4143525;28;20576;-71
2022/12/02 10:17:31;;;;;;;60.30;25.20;;;4.40;99.90;;;;;;4144752;28;20119;-73
2022/12/02 10:19:31;;;;;;;56.42;25.20;;;4.40;99.90;;;;;;4147809;28;20042;-71
2022/12/02 10:21:32;;;;;;;62.20;27.63;;;4.40;99.90;;;;;;4147242;28;20052;-68
2022/12/02 10:23:52;;;;;;;56.92;26.20;;;4.40;99.90;;;;;;4147677;28;20036;-69
2022/12/02 10:25:57;;;;;;;64.00;25.48;;;4.40;99.90;;;;;;4129053;28;20437;-68
2022/12/02 10:27:57;;;;;;;58.80;26.00;;;4.40;99.90;;;;;;4144471;28;20100;-71
2022/12/02 10:30:16;;;;;;;67.30;28.10;;;4.50;99.90;;;;;;4146111;28;20042;-71